createdAt,value
2022-11-24T00:00:13.298Z,99458.19
2022-11-24T00:01:32.286Z,99457.09
2022-11-24T00:02:26.406Z,99442.59
2022-11-24T00:03:20.395Z,99446.22
2022-11-24T00:04:18.343Z,99461.19
2022-11-24T00:05:12.352Z,99460.09
2022-11-24T00:06:06.332Z,99456.34
2022-11-24T00:06:54.349Z,99461.91
2022-11-24T00:07:28.369Z,99463.88
2022-11-24T00:08:16.273Z,99461.19
2022-11-24T00:08:52.531Z,99456.69
2022-11-24T00:09:39.285Z,99450.31
2022-11-24T00:10:13.361Z,99443.59
2022-11-24T00:11:00.310Z,99458.22
2022-11-24T00:11:37.395Z,99457.16
2022-11-24T00:12:17.347Z,99449.00
2022-11-24T00:12:57.357Z,99457.88
2022-11-24T00:13:37.291Z,99456.41
2022-11-24T00:14:21.013Z,99452.84
2022-11-24T00:15:01.256Z,99444.34
2022-11-24T00:15:41.360Z,99459.81
2022-11-24T00:16:28.394Z,99459.09
2022-11-24T00:17:08.536Z,99459.81
2022-11-24T00:17:48.335Z,99453.50
2022-11-24T00:18:28.362Z,99445.59
2022-11-24T00:19:17.032Z,99446.66
2022-11-24T00:19:59.358Z,99450.81
2022-11-24T00:20:39.252Z,99455.97
2022-11-24T00:21:20.333Z,99455.00
2022-11-24T00:22:00.247Z,99446.91
2022-11-24T00:22:40.324Z,99464.00
2022-11-24T00:23:20.306Z,99463.22
2022-11-24T00:24:02.385Z,99467.41
2022-11-24T00:24:42.285Z,99464.00
2022-11-24T00:25:22.416Z,99454.59
2022-11-24T00:26:09.317Z,99469.34
2022-11-24T00:26:49.331Z,99469.34
2022-11-24T00:27:29.274Z,99470.06
2022-11-24T00:28:09.296Z,99459.69
2022-11-24T00:28:51.288Z,99469.09
2022-11-24T00:29:31.315Z,99466.94
2022-11-24T00:30:12.300Z,99468.75
2022-11-24T00:30:52.345Z,99467.66
2022-11-24T00:31:51.271Z,99461.59
2022-11-24T00:32:34.359Z,99465.25
2022-11-24T00:33:15.305Z,99468.88
2022-11-24T00:34:06.277Z,99465.44
2022-11-24T00:35:01.345Z,99463.34
2022-11-24T00:35:55.231Z,99465.06
2022-11-24T00:36:50.260Z,99452.00
2022-11-24T00:37:44.272Z,99464.00
2022-11-24T00:38:39.291Z,99465.91
2022-11-24T00:39:26.279Z,99467.59
2022-11-24T00:40:00.308Z,99478.44
2022-11-24T00:40:47.277Z,99468.69
2022-11-24T00:41:21.401Z,99472.88
2022-11-24T00:42:08.227Z,99477.38
2022-11-24T00:42:42.567Z,99466.34
2022-11-24T00:43:30.265Z,99469.78
2022-11-24T00:44:04.457Z,99472.56
2022-11-24T00:44:51.328Z,99461.47
2022-11-24T00:45:25.311Z,99465.38
2022-11-24T00:46:12.385Z,99460.78
2022-11-24T00:46:46.376Z,99460.56
2022-11-24T00:47:35.258Z,99467.50
2022-11-24T00:48:09.310Z,99461.78
2022-11-24T00:48:57.232Z,99472.00
2022-11-24T00:49:31.302Z,99461.19
2022-11-24T00:50:12.292Z,99464.19
2022-11-24T00:51:10.311Z,99463.22
2022-11-24T00:51:51.416Z,99461.97
2022-11-24T00:52:31.408Z,99463.47
2022-11-24T00:53:12.260Z,99456.63
2022-11-24T00:53:46.285Z,99463.81
2022-11-24T00:54:34.606Z,99455.91
2022-11-24T00:55:09.127Z,99460.16
2022-11-24T00:55:50.267Z,99451.00
2022-11-24T00:56:24.573Z,99462.09
2022-11-24T00:56:57.933Z,99464.66
2022-11-24T00:57:41.250Z,99452.47
2022-11-24T00:58:15.341Z,99469.78
2022-11-24T00:58:48.996Z,99445.41
2022-11-24T00:59:29.235Z,99436.84
2022-11-24T01:00:03.341Z,99463.69
2022-11-24T01:00:36.917Z,99460.78
2022-11-24T01:01:24.327Z,99453.31
2022-11-24T01:01:58.561Z,99456.31
2022-11-24T01:02:33.075Z,99461.78
2022-11-24T01:03:14.243Z,99471.25
2022-11-24T01:03:49.362Z,99472.09
2022-11-24T01:04:22.951Z,99468.25
2022-11-24T01:05:03.233Z,99465.69
2022-11-24T01:05:37.287Z,99464.00
2022-11-24T01:06:20.816Z,99473.59
2022-11-24T01:07:01.288Z,99465.69
2022-11-24T01:07:35.745Z,99458.41
2022-11-24T01:08:10.169Z,99464.38
2022-11-24T01:08:58.274Z,99455.97
2022-11-24T01:09:32.299Z,99475.94
2022-11-24T01:10:19.235Z,99470.78
2022-11-24T01:10:53.331Z,99470.78
2022-11-24T01:12:01.279Z,99462.25
2022-11-24T01:12:35.448Z,99467.28
2022-11-24T01:13:22.269Z,99472.28
2022-11-24T01:14:02.596Z,99479.59
2022-11-24T01:14:49.221Z,99448.59
2022-11-24T01:15:23.344Z,99473.59
2022-11-24T01:16:10.257Z,99472.75
2022-11-24T01:16:44.264Z,99481.63
2022-11-24T01:17:24.232Z,99475.19
2022-11-24T01:18:04.279Z,99474.69
2022-11-24T01:18:44.231Z,99464.94
2022-11-24T01:19:24.327Z,99470.06
2022-11-24T01:20:04.189Z,99471.25
2022-11-24T01:20:44.265Z,99462.72
2022-11-24T01:21:25.180Z,99474.91
2022-11-24T01:22:05.266Z,99480.50
2022-11-24T01:22:46.229Z,99477.91
2022-11-24T01:23:26.346Z,99476.09
2022-11-24T01:24:07.231Z,99473.78
2022-11-24T01:24:47.315Z,99465.09
2022-11-24T01:25:28.237Z,99465.72
2022-11-24T01:26:13.372Z,99468.94
2022-11-24T01:26:53.231Z,99474.41
2022-11-24T01:27:33.232Z,99463.81
2022-11-24T01:28:13.226Z,99472.44
2022-11-24T01:28:54.419Z,99468.19
2022-11-24T01:29:35.205Z,99466.81
2022-11-24T01:30:16.316Z,99465.72
2022-11-24T01:31:12.289Z,99456.44
2022-11-24T01:31:52.271Z,99459.13
2022-11-24T01:32:32.321Z,99470.13
2022-11-24T01:33:20.293Z,99471.94
2022-11-24T01:34:14.216Z,99468.19
2022-11-24T01:35:08.234Z,99475.97
2022-11-24T01:36:02.248Z,99466.38
2022-11-24T01:36:56.201Z,99461.88
2022-11-24T01:37:50.198Z,99466.13
2022-11-24T01:38:37.247Z,99463.56
2022-11-24T01:39:11.279Z,99461.69
2022-11-24T01:39:58.182Z,99471.19
2022-11-24T01:40:32.223Z,99467.94
2022-11-24T01:41:31.260Z,99471.94
2022-11-24T01:42:08.273Z,99468.75
2022-11-24T01:42:58.194Z,99461.69
2022-11-24T01:43:32.244Z,99473.66
2022-11-24T01:44:34.385Z,99475.56
2022-11-24T01:45:43.071Z,99436.03
2022-11-24T01:46:51.177Z,99466.69
2022-11-24T01:47:46.463Z,99466.81
2022-11-24T01:48:36.289Z,99441.78
2022-11-24T01:49:20.715Z,99466.59
2022-11-24T01:50:04.203Z,99451.19
2022-11-24T01:50:44.277Z,99461.25
2022-11-24T01:51:29.196Z,99447.97
2022-11-24T01:52:44.203Z,99457.59
2022-11-24T01:53:24.173Z,99459.50
2022-11-24T01:54:40.365Z,99439.44
2022-11-24T01:55:25.220Z,99464.44
2022-11-24T01:56:05.351Z,99467.03
2022-11-24T01:56:48.180Z,99453.00
2022-11-24T01:57:36.342Z,99461.47
2022-11-24T01:58:25.151Z,99470.22
2022-11-24T01:59:09.214Z,99461.47
2022-11-24T01:59:53.169Z,99451.91
2022-11-24T02:00:40.210Z,99474.72
2022-11-24T02:01:35.233Z,99473.00
2022-11-24T02:02:29.253Z,99458.91
2022-11-24T02:03:27.183Z,99454.16
2022-11-24T02:04:26.155Z,99462.72
2022-11-24T02:05:27.192Z,99466.16
2022-11-24T02:06:25.164Z,99461.31
2022-11-24T02:07:07.307Z,99456.91
2022-11-24T02:07:47.208Z,99459.69
2022-11-24T02:08:57.247Z,99463.00
2022-11-24T02:09:52.166Z,99466.03
2022-11-24T02:10:32.225Z,99470.28
2022-11-24T02:11:13.160Z,99474.91
2022-11-24T02:11:54.203Z,99465.50
2022-11-24T02:12:30.215Z,99465.75
2022-11-24T02:13:17.145Z,99478.75
2022-11-24T02:13:51.208Z,99478.75
2022-11-24T02:14:38.166Z,99482.41
2022-11-24T02:15:13.216Z,99474.63
2022-11-24T02:16:01.265Z,99473.66
2022-11-24T02:16:36.274Z,99473.66
2022-11-24T02:17:17.211Z,99470.00
2022-11-24T02:17:57.286Z,99459.63
2022-11-24T02:18:37.164Z,99471.69
2022-11-24T02:19:46.207Z,99472.56
2022-11-24T02:20:27.331Z,99473.41
2022-11-24T02:21:07.205Z,99467.84
2022-11-24T02:21:47.160Z,99459.63
2022-11-24T02:22:48.196Z,99458.56
2022-11-24T02:24:06.134Z,99455.66
2022-11-24T02:25:17.168Z,99460.78
2022-11-24T02:26:15.150Z,99462.38
2022-11-24T02:27:09.157Z,99454.59
2022-11-24T02:28:03.168Z,99459.81
2022-11-24T02:28:57.145Z,99464.66
2022-11-24T02:29:52.273Z,99456.75
2022-11-24T02:30:46.205Z,99445.41
2022-11-24T02:31:40.157Z,99462.09
2022-11-24T02:32:34.116Z,99442.00
2022-11-24T02:33:22.176Z,99454.34
2022-11-24T02:33:57.201Z,99440.06
2022-11-24T02:34:44.132Z,99446.66
2022-11-24T02:35:19.180Z,99451.06
2022-11-24T02:36:06.128Z,99458.84
2022-11-24T02:36:40.296Z,99441.56
2022-11-24T02:37:27.121Z,99451.16
2022-11-24T02:38:01.250Z,99450.31
2022-11-24T02:38:42.140Z,99447.97
2022-11-24T02:39:36.144Z,99445.41
2022-11-24T02:40:34.155Z,99450.75
2022-11-24T02:41:33.126Z,99457.59
2022-11-24T02:42:28.129Z,99448.81
2022-11-24T02:43:27.147Z,99453.97
2022-11-24T02:44:08.142Z,99454.28
2022-11-24T02:44:55.198Z,99447.34
2022-11-24T02:45:38.102Z,99447.53
2022-11-24T02:46:18.366Z,99456.09
2022-11-24T02:47:13.162Z,99450.75
2022-11-24T02:47:54.229Z,99450.63
2022-11-24T02:48:35.138Z,99452.84
2022-11-24T02:49:23.173Z,99452.97
2022-11-24T02:50:18.296Z,99449.56
2022-11-24T02:51:12.099Z,99459.09
2022-11-24T02:52:06.126Z,99462.50
2022-11-24T02:53:00.121Z,99464.00
2022-11-24T02:53:54.125Z,99460.56
2022-11-24T02:54:41.158Z,99460.66
2022-11-24T02:55:15.180Z,99462.25
2022-11-24T02:56:02.119Z,99453.50
2022-11-24T02:56:36.164Z,99443.25
2022-11-24T02:57:23.102Z,99444.97
2022-11-24T02:57:58.393Z,99455.31
2022-11-24T02:58:46.341Z,99463.75
2022-11-24T02:59:20.192Z,99461.06
2022-11-24T03:00:00.156Z,99467.16
2022-11-24T03:00:40.187Z,99456.81
2022-11-24T03:01:20.160Z,99441.31
2022-11-24T03:02:00.258Z,99460.56
2022-11-24T03:02:40.115Z,99427.84
2022-11-24T03:03:20.125Z,99459.38
2022-11-24T03:04:01.104Z,99444.22
2022-11-24T03:04:41.131Z,99461.91
2022-11-24T03:05:22.112Z,99459.50
2022-11-24T03:06:02.217Z,99467.41
2022-11-24T03:06:42.112Z,99450.94
2022-11-24T03:07:23.096Z,99461.31
2022-11-24T03:08:04.106Z,99456.91
2022-11-24T03:08:44.225Z,99456.19
2022-11-24T03:09:25.102Z,99461.53
2022-11-24T03:10:05.231Z,99454.47
2022-11-24T03:10:46.126Z,99461.97
2022-11-24T03:11:26.178Z,99461.25
2022-11-24T03:12:06.102Z,99468.31
2022-11-24T03:12:46.138Z,99462.31
2022-11-24T03:13:27.094Z,99459.75
2022-11-24T03:14:07.170Z,99447.88
2022-11-24T03:14:47.132Z,99470.44
2022-11-24T03:15:27.199Z,99464.25
2022-11-24T03:16:07.175Z,99466.06
2022-11-24T03:16:47.359Z,99471.72
2022-11-24T03:17:27.092Z,99469.91
2022-11-24T03:18:07.144Z,99461.88
2022-11-24T03:18:47.099Z,99465.28
2022-11-24T03:19:27.604Z,99460.38
2022-11-24T03:20:09.199Z,99446.84
2022-11-24T03:20:49.710Z,99464.16
2022-11-24T03:21:31.129Z,99460.81
2022-11-24T03:22:11.138Z,99464.34
2022-11-24T03:22:52.069Z,99464.72
2022-11-24T03:23:32.125Z,99466.50
2022-11-24T03:24:13.100Z,99461.06
2022-11-24T03:24:53.306Z,99461.28
2022-11-24T03:25:33.111Z,99457.44
2022-11-24T03:26:16.201Z,99460.81
2022-11-24T03:26:56.137Z,99461.69
2022-11-24T03:27:38.139Z,99465.31
2022-11-24T03:28:18.114Z,99455.19
2022-11-24T03:29:02.503Z,99456.56
2022-11-24T03:29:42.085Z,99466.19
2022-11-24T03:30:23.165Z,99458.41
2022-11-24T03:31:03.138Z,99451.56
2022-11-24T03:31:43.321Z,99472.16
2022-11-24T03:32:24.111Z,99466.69
2022-11-24T03:33:05.016Z,99468.53
2022-11-24T03:33:46.100Z,99463.16
2022-11-24T03:34:26.232Z,99463.06
2022-11-24T03:35:07.067Z,99466.69
2022-11-24T03:35:47.140Z,99464.03
2022-11-24T03:36:28.056Z,99457.63
2022-11-24T03:37:08.095Z,99465.28
2022-11-24T03:37:48.108Z,99462.59
2022-11-24T03:38:28.142Z,99464.13
2022-11-24T03:39:08.094Z,99455.69
2022-11-24T03:39:48.198Z,99464.25
2022-11-24T03:40:28.068Z,99458.06
2022-11-24T03:41:08.134Z,99465.09
2022-11-24T03:41:49.084Z,99460.16
2022-11-24T03:42:29.148Z,99432.38
2022-11-24T03:43:10.057Z,99449.47
2022-11-24T03:43:50.183Z,99459.75
2022-11-24T03:44:31.280Z,99468.75
2022-11-24T03:46:14.095Z,99465.09
2022-11-24T03:46:54.167Z,99459.75
2022-11-24T03:47:34.087Z,99456.34
2022-11-24T03:48:22.127Z,99460.41
2022-11-24T03:49:16.078Z,99451.72
2022-11-24T03:50:10.064Z,99465.50
2022-11-24T03:51:13.044Z,99465.38
2022-11-24T03:52:08.400Z,99461.97
2022-11-24T03:53:02.079Z,99455.38
2022-11-24T03:53:42.062Z,99464.66
2022-11-24T03:54:22.153Z,99465.38
2022-11-24T03:55:02.082Z,99457.34
2022-11-24T03:55:43.072Z,99456.09
2022-11-24T03:56:23.081Z,99455.66
2022-11-24T03:57:03.144Z,99460.41
2022-11-24T03:57:43.037Z,99460.16
2022-11-24T03:58:23.133Z,99456.84
2022-11-24T03:59:03.080Z,99462.72
2022-11-24T03:59:43.136Z,99457.34
2022-11-24T04:00:24.080Z,99459.09
2022-11-24T04:01:04.116Z,99465.06
2022-11-24T04:01:44.099Z,99458.63
2022-11-24T04:02:24.171Z,99470.78
2022-11-24T04:03:04.115Z,99475.94
2022-11-24T04:03:44.196Z,99471.66
2022-11-24T04:04:24.083Z,99468.13
2022-11-24T04:05:04.120Z,99467.91
2022-11-24T04:05:45.048Z,99460.09
2022-11-24T04:06:25.178Z,99474.00
2022-11-24T04:07:05.028Z,99470.59
2022-11-24T04:07:45.107Z,99468.63
2022-11-24T04:08:26.047Z,99469.81
2022-11-24T04:09:07.087Z,99476.66
2022-11-24T04:09:47.066Z,99468.97
2022-11-24T04:10:27.091Z,99475.69
2022-11-24T04:11:07.065Z,99469.63
2022-11-24T04:12:16.173Z,99471.94
2022-11-24T04:12:57.052Z,99477.19
2022-11-24T04:13:37.122Z,99476.22
2022-11-24T04:14:18.042Z,99471.84
2022-11-24T04:15:05.038Z,99472.69
2022-11-24T04:15:59.188Z,99460.63
2022-11-24T04:16:53.059Z,99479.66
2022-11-24T04:17:47.076Z,99473.53
2022-11-24T04:18:41.051Z,99460.09
2022-11-24T04:19:35.054Z,99474.84
2022-11-24T04:20:23.108Z,99476.78
2022-11-24T04:20:58.128Z,99480.84
2022-11-24T04:21:46.016Z,99485.34
2022-11-24T04:22:20.208Z,99487.25
2022-11-24T04:23:07.017Z,99487.88
2022-11-24T04:23:41.051Z,99481.91
2022-11-24T04:24:28.117Z,99492.78
2022-11-24T04:25:02.253Z,99490.44
2022-11-24T04:25:43.044Z,99485.09
2022-11-24T04:26:24.078Z,99493.97
2022-11-24T04:27:04.099Z,99491.88
2022-11-24T04:27:45.378Z,99498.59
2022-11-24T04:28:26.023Z,99488.13
2022-11-24T04:29:06.079Z,99498.38
2022-11-24T04:29:47.020Z,99502.63
2022-11-24T04:30:29.088Z,99488.00
2022-11-24T04:31:11.121Z,99504.19
2022-11-24T04:31:51.145Z,99503.81
2022-11-24T04:32:31.994Z,99498.38
2022-11-24T04:33:12.352Z,99512.28
2022-11-24T04:33:52.000Z,99509.59
2022-11-24T04:34:32.359Z,99515.69
2022-11-24T04:35:15.013Z,99515.69
2022-11-24T04:35:55.056Z,99512.03
2022-11-24T04:36:36.011Z,99520.56
2022-11-24T04:37:16.053Z,99521.75
2022-11-24T04:37:57.015Z,99522.72
2022-11-24T04:39:23.848Z,99520.06
2022-11-24T04:39:37.002Z,99515.28
2022-11-24T04:40:18.100Z,99514.63
2022-11-24T04:40:58.034Z,99527.69
2022-11-24T04:41:45.019Z,99532.19
2022-11-24T04:42:39.004Z,99532.91
2022-11-24T04:43:36.441Z,99526.06
2022-11-24T04:44:34.360Z,99518.03
2022-11-24T04:45:28.040Z,99529.38
2022-11-24T04:46:25.065Z,99521.69
2022-11-24T04:47:06.028Z,99525.34
2022-11-24T04:47:46.044Z,99524.50
2022-11-24T04:48:25.995Z,99527.03
2022-11-24T04:49:06.120Z,99522.53
2022-11-24T04:49:46.008Z,99522.47
2022-11-24T04:50:26.259Z,99530.25
2022-11-24T04:51:06.024Z,99533.69
2022-11-24T04:51:47.020Z,99528.22
2022-11-24T04:52:30.009Z,99531.72
2022-11-24T04:53:11.117Z,99519.78
2022-11-24T04:53:50.998Z,99533.44
2022-11-24T04:54:31.220Z,99532.34
2022-11-24T04:55:12.067Z,99541.34
2022-11-24T04:55:52.143Z,99527.44
2022-11-24T04:56:33.000Z,99539.63
2022-11-24T04:57:13.308Z,99542.19
2022-11-24T04:57:54.095Z,99528.09
2022-11-24T04:58:48.047Z,99527.88
2022-11-24T04:59:41.997Z,99540.88
2022-11-24T05:00:36.004Z,99529.78
2022-11-24T05:01:30.056Z,99536.63
2022-11-24T05:02:23.999Z,99534.94
2022-11-24T05:03:12.015Z,99548.06
2022-11-24T05:03:46.134Z,99545.72
2022-11-24T05:04:33.363Z,99552.69
2022-11-24T05:05:08.228Z,99545.84
2022-11-24T05:05:56.036Z,99549.03
2022-11-24T05:06:30.146Z,99553.53
2022-11-24T05:07:22.017Z,99551.44
2022-11-24T05:07:56.057Z,99559.22
2022-11-24T05:08:36.087Z,99553.59
2022-11-24T05:09:22.030Z,99554.66
2022-11-24T05:10:21.004Z,99554.03
2022-11-24T05:11:02.061Z,99553.06
2022-11-24T05:11:41.977Z,99559.66
2022-11-24T05:12:22.119Z,99560.84
2022-11-24T05:13:03.980Z,99564.75
2022-11-24T05:13:50.984Z,99572.00
2022-11-24T05:14:45.161Z,99561.53
2022-11-24T05:15:39.956Z,99565.81
2022-11-24T05:16:34.053Z,99567.94
2022-11-24T05:17:28.082Z,99570.53
2022-11-24T05:18:26.057Z,99567.09
2022-11-24T05:19:13.092Z,99554.69
2022-11-24T05:19:47.149Z,99563.25
2022-11-24T05:20:33.948Z,99568.38
2022-11-24T05:21:08.075Z,99570.09
2022-11-24T05:21:54.987Z,99571.78
2022-11-24T05:22:29.080Z,99570.63
2022-11-24T05:23:15.983Z,99573.28
2022-11-24T05:23:50.013Z,99567.94
2022-11-24T05:24:37.062Z,99575.19
2022-11-24T05:25:18.242Z,99569.66
2022-11-24T05:25:58.965Z,99562.78
2022-11-24T05:26:39.123Z,99567.94
2022-11-24T05:27:18.944Z,99567.50
2022-11-24T05:28:00.155Z,99563.03
2022-11-24T05:28:39.967Z,99565.91
2022-11-24T05:29:20.035Z,99570.81
2022-11-24T05:30:00.996Z,99563.53
2022-11-24T05:30:41.057Z,99575.97
2022-11-24T05:31:20.985Z,99557.91
2022-11-24T05:32:01.068Z,99568.47
2022-11-24T05:32:40.941Z,99570.28
2022-11-24T05:33:23.044Z,99572.00
2022-11-24T05:34:02.912Z,99557.38
2022-11-24T05:34:44.017Z,99565.19
2022-11-24T05:35:24.976Z,99572.13
2022-11-24T05:36:31.771Z,99571.28
2022-11-24T05:37:11.971Z,99563.38
2022-11-24T05:37:52.060Z,99560.78
2022-11-24T05:38:32.952Z,99567.63
2022-11-24T05:39:14.007Z,99555.66
2022-11-24T05:39:53.995Z,99567.75
2022-11-24T05:40:41.999Z,99565.41
2022-11-24T05:41:15.948Z,99569.03
2022-11-24T05:42:02.992Z,99570.28
2022-11-24T05:42:47.225Z,99569.25
2022-11-24T05:43:34.944Z,99567.75
2022-11-24T05:44:08.644Z,99566.03
2022-11-24T05:44:55.972Z,99576.75
2022-11-24T05:45:30.091Z,99575.75
2022-11-24T05:46:09.960Z,99558.53
2022-11-24T05:46:44.010Z,99567.34
2022-11-24T05:47:18.712Z,99572.69
2022-11-24T05:47:59.957Z,99581.69
2022-11-24T05:48:34.011Z,99569.25
2022-11-24T05:49:07.719Z,99574.38
2022-11-24T05:49:48.932Z,99582.41
2022-11-24T05:50:26.055Z,99572.16
2022-11-24T05:50:59.813Z,99565.44
2022-11-24T05:51:40.959Z,99571.75
2022-11-24T05:52:14.947Z,99550.34
2022-11-24T05:52:49.677Z,99550.34
2022-11-24T05:53:30.908Z,99584.16
2022-11-24T05:54:05.113Z,99574.88
2022-11-24T05:54:38.871Z,99567.34
2022-11-24T05:55:21.933Z,99588.28
2022-11-24T05:55:55.980Z,99585.63
2022-11-24T05:56:30.607Z,99582.94
2022-11-24T05:57:10.943Z,99581.22
2022-11-24T05:57:45.080Z,99582.19
2022-11-24T05:58:19.761Z,99588.63
2022-11-24T05:59:00.927Z,99588.41
2022-11-24T05:59:37.026Z,99588.53
2022-11-24T06:00:11.516Z,99579.66
2022-11-24T06:00:51.917Z,99578.78
2022-11-24T06:01:25.976Z,99567.78
2022-11-24T06:02:00.058Z,99591.19
2022-11-24T06:02:41.140Z,99581.47
2022-11-24T06:03:17.195Z,99561.16
2022-11-24T06:03:51.004Z,99584.03
2022-11-24T06:04:32.252Z,99588.41
2022-11-24T06:05:07.059Z,99595.56
2022-11-24T06:05:40.830Z,99594.91
2022-11-24T06:06:20.901Z,99587.25
2022-11-24T06:06:55.029Z,99595.03
2022-11-24T06:07:29.768Z,99588.94
2022-11-24T06:08:11.039Z,99581.66
2022-11-24T06:08:44.976Z,99579.97
2022-11-24T06:09:18.612Z,99581.66
2022-11-24T06:09:58.915Z,99589.25
2022-11-24T06:10:32.999Z,99579.97
2022-11-24T06:11:18.779Z,99591.94
2022-11-24T06:11:59.956Z,99578.78
2022-11-24T06:12:33.961Z,99591.94
2022-11-24T06:13:08.698Z,99584.88
2022-11-24T06:13:51.965Z,99588.72
2022-11-24T06:14:25.983Z,99596.31
2022-11-24T06:14:59.706Z,99582.53
2022-11-24T06:15:43.944Z,99599.47
2022-11-24T06:16:19.194Z,99587.44
2022-11-24T06:16:53.807Z,99603.72
2022-11-24T06:17:34.972Z,99595.59
2022-11-24T06:18:08.950Z,99593.75
2022-11-24T06:18:43.041Z,99590.22
2022-11-24T06:19:23.978Z,99596.22
2022-11-24T06:19:58.001Z,99609.28
2022-11-24T06:20:33.019Z,99606.50
2022-11-24T06:21:13.948Z,99589.38
2022-11-24T06:21:48.475Z,99599.31
2022-11-24T06:22:22.994Z,99602.00
2022-11-24T06:23:06.900Z,99605.19
2022-11-24T06:23:41.173Z,99612.13
2022-11-24T06:24:14.766Z,99601.78
2022-11-24T06:24:56.968Z,99607.75
2022-11-24T06:25:30.985Z,99594.28
2022-11-24T06:26:05.055Z,99601.13
2022-11-24T06:26:44.907Z,99603.94
2022-11-24T06:27:20.124Z,99608.31
2022-11-24T06:27:53.629Z,99613.34
2022-11-24T06:28:34.934Z,99613.78
2022-11-24T06:29:09.028Z,99618.88
2022-11-24T06:29:55.896Z,99615.47
2022-11-24T06:30:36.880Z,99617.84
2022-11-24T06:31:30.913Z,99620.84
2022-11-24T06:32:24.883Z,99626.72
2022-11-24T06:33:19.888Z,99624.03
2022-11-24T06:34:13.894Z,99610.97
2022-11-24T06:35:07.942Z,99608.19
2022-11-24T06:36:02.918Z,99619.88
2022-11-24T06:36:56.908Z,99615.47
2022-11-24T06:37:50.946Z,99614.63
2022-11-24T06:38:45.999Z,99626.38
2022-11-24T06:39:39.941Z,99607.66
2022-11-24T06:40:26.879Z,99613.97
2022-11-24T06:41:26.938Z,99616.44
2022-11-24T06:42:13.888Z,99622.53
2022-11-24T06:42:47.939Z,99618.34
2022-11-24T06:43:36.876Z,99618.03
2022-11-24T06:44:11.963Z,99619.13
2022-11-24T06:44:58.906Z,99604.56
2022-11-24T06:45:39.905Z,99621.03
2022-11-24T06:46:34.899Z,99620.84
2022-11-24T06:47:28.906Z,99619.13
2022-11-24T06:48:22.882Z,99626.19
2022-11-24T06:49:16.899Z,99609.28
2022-11-24T06:50:10.902Z,99615.28
2022-11-24T06:50:57.891Z,99626.63
2022-11-24T06:51:31.952Z,99626.09
2022-11-24T06:52:18.856Z,99622.44
2022-11-24T06:52:52.892Z,99628.44
2022-11-24T06:53:45.892Z,99629.72
2022-11-24T06:54:24.940Z,99629.50
2022-11-24T06:55:12.878Z,99623.41
2022-11-24T06:55:46.962Z,99631.75
2022-11-24T06:56:27.872Z,99631.56
2022-11-24T06:57:07.933Z,99629.19
2022-11-24T06:57:48.841Z,99628.22
2022-11-24T06:58:28.920Z,99632.59
2022-11-24T06:59:09.862Z,99634.22
2022-11-24T06:59:49.874Z,99631.63
2022-11-24T07:00:30.858Z,99644.56
2022-11-24T07:01:10.954Z,99641.81
2022-11-24T07:01:51.892Z,99627.78
2022-11-24T07:02:32.954Z,99642.00
2022-11-24T07:03:12.883Z,99641.81
2022-11-24T07:04:08.865Z,99633.56
2022-11-24T07:05:02.888Z,99638.59
2022-11-24T07:05:56.838Z,99640.81
2022-11-24T07:06:50.948Z,99644.34
2022-11-24T07:07:31.933Z,99640.81
2022-11-24T07:08:17.436Z,99636.66
2022-11-24T07:08:58.867Z,99639.97
2022-11-24T07:09:38.886Z,99646.28
2022-11-24T07:10:18.841Z,99641.69
2022-11-24T07:10:58.920Z,99627.88
2022-11-24T07:11:38.935Z,99633.97
2022-11-24T07:12:19.871Z,99638.16
2022-11-24T07:12:53.949Z,99623.81
2022-11-24T07:13:40.853Z,99636.44
2022-11-24T07:14:14.933Z,99639.97
2022-11-24T07:15:01.861Z,99634.94
2022-11-24T07:15:35.912Z,99638.16
2022-11-24T07:16:28.901Z,99639.00
2022-11-24T07:17:04.665Z,99643.69
2022-11-24T07:17:45.931Z,99631.75
2022-11-24T07:18:25.902Z,99637.63
2022-11-24T07:19:06.810Z,99638.34
2022-11-24T07:19:46.895Z,99636.66
2022-11-24T07:20:26.847Z,99643.50
2022-11-24T07:21:10.931Z,99644.34
2022-11-24T07:21:51.880Z,99641.38
2022-11-24T07:22:31.864Z,99644.78
2022-11-24T07:23:12.862Z,99644.78
2022-11-24T07:23:56.919Z,99653.47
2022-11-24T07:24:37.178Z,99657.06
2022-11-24T07:25:17.877Z,99651.22
2022-11-24T07:26:03.710Z,99659.75
2022-11-24T07:26:46.984Z,99653.13
2022-11-24T07:27:26.829Z,99660.84
2022-11-24T07:28:06.915Z,99640.00
2022-11-24T07:28:47.868Z,99654.63
2022-11-24T07:29:27.878Z,99668.97
2022-11-24T07:30:08.820Z,99651.13
2022-11-24T07:30:48.867Z,99662.56
2022-11-24T07:31:32.904Z,99648.66
2022-11-24T07:32:12.966Z,99648.19
2022-11-24T07:32:52.869Z,99658.38
2022-11-24T07:33:32.880Z,99661.47
2022-11-24T07:34:12.852Z,99646.09
2022-11-24T07:34:53.209Z,99657.88
2022-11-24T07:35:33.844Z,99663.09
2022-11-24T07:36:15.867Z,99645.28
2022-11-24T07:36:56.838Z,99661.41
2022-11-24T07:37:36.879Z,99664.91
2022-11-24T07:38:16.862Z,99653.44
2022-11-24T07:38:56.888Z,99668.34
2022-11-24T07:39:37.888Z,99663.84
2022-11-24T07:40:18.955Z,99663.84
2022-11-24T07:40:58.814Z,99655.28
2022-11-24T07:41:38.909Z,99670.69
2022-11-24T07:42:18.808Z,99668.00
2022-11-24T07:42:59.855Z,99669.19
2022-11-24T07:43:41.848Z,99669.41
2022-11-24T07:44:22.862Z,99664.50
2022-11-24T07:45:02.851Z,99667.50
2022-11-24T07:45:56.873Z,99674.00
2022-11-24T07:46:50.837Z,99669.84
2022-11-24T07:47:44.865Z,99671.13
2022-11-24T07:48:38.879Z,99670.47
2022-11-24T07:49:33.813Z,99669.63
2022-11-24T07:50:20.824Z,99669.47
2022-11-24T07:50:56.292Z,99669.34
2022-11-24T07:51:43.823Z,99661.78
2022-11-24T07:52:17.869Z,99669.19
2022-11-24T07:53:09.800Z,99675.06
2022-11-24T07:53:44.931Z,99679.44
2022-11-24T07:54:32.035Z,99675.78
2022-11-24T07:55:05.933Z,99676.53
2022-11-24T07:55:45.811Z,99677.09
2022-11-24T07:56:25.831Z,99688.56
2022-11-24T07:57:05.798Z,99683.09
2022-11-24T07:57:45.850Z,99679.69
2022-11-24T07:58:31.891Z,99682.03
2022-11-24T07:59:12.863Z,99688.03
2022-11-24T07:59:52.825Z,99685.22
2022-11-24T08:00:33.978Z,99678.72
2022-11-24T08:01:23.842Z,99671.00
2022-11-24T08:02:04.927Z,99665.03
2022-11-24T08:02:45.890Z,99670.88
2022-11-24T08:03:25.929Z,99696.78
2022-11-24T08:04:07.823Z,99685.47
2022-11-24T08:04:47.799Z,99689.97
2022-11-24T08:05:28.807Z,99695.94
2022-11-24T08:06:28.618Z,99686.31
2022-11-24T08:07:09.844Z,99689.97
2022-11-24T08:07:49.944Z,99694.88
2022-11-24T08:08:30.776Z,99695.50
2022-11-24T08:09:11.824Z,99688.25
2022-11-24T08:09:51.865Z,99690.16
2022-11-24T08:10:31.903Z,99703.31
2022-11-24T08:11:14.789Z,99698.16
2022-11-24T08:11:55.012Z,99695.50
2022-11-24T08:12:34.819Z,99697.97
2022-11-24T08:13:14.865Z,99705.69
2022-11-24T08:13:55.782Z,99684.06
2022-11-24T08:14:36.145Z,99708.97
2022-11-24T08:15:17.810Z,99692.06
2022-11-24T08:15:57.860Z,99699.66
2022-11-24T08:16:38.835Z,99692.94
2022-11-24T08:17:18.927Z,99695.41
2022-11-24T08:17:58.792Z,99703.97
2022-11-24T08:18:39.886Z,99706.63
2022-11-24T08:19:19.823Z,99705.66
2022-11-24T08:19:59.827Z,99704.69
2022-11-24T08:20:39.817Z,99705.44
2022-11-24T08:21:20.905Z,99692.72
2022-11-24T08:22:00.781Z,99700.06
2022-11-24T08:22:40.800Z,99690.34
2022-11-24T08:23:21.792Z,99708.56
2022-11-24T08:24:02.844Z,99702.75
2022-11-24T08:24:43.882Z,99700.94
2022-11-24T08:25:25.367Z,99709.72
2022-11-24T08:26:11.760Z,99709.84
2022-11-24T08:26:51.936Z,99709.84